OOCL Busan — VRDN3 — position and weather

sailwx.info

Track history (hours):
 
Tides and Currents Weather Stations Pressure Air Temp Water Temp Dewpoint Dewpoint Depression Visibility Wind Speed Wind Dir Waves Ship Positions

OOCL Busan

Last reported at 2018-Jan-20 21:35 UTC. Time now 2018-Jan-24 01:58 UTC.
Position N 23°52' E 119°59'.

Length 260 m; draft 8.3 m.

Type: Cargo ship. MMSI: 477007100.

Date/timePositionNaut miles runAvg speedWind from/ knotsBaromVisibWave heightAir tempDewpointWater temp
2018-Jan-20 21:35N 23°52' E 119°59'112.3
2018-Jan-20 21:30N 23°51' E 119°58'612.1
2018-Jan-20 20:59N 23°45' E 119°56'612.3
2018-Jan-20 20:30N 23°39' E 119°54'612.4
2018-Jan-20 20:00N 23°33' E 119°54'612.5
2018-Jan-20 19:30N 23°27' E 119°52'612.8
2018-Jan-20 19:00N 23°21' E 119°52'913.1
2018-Jan-20 18:17N 23°12' E 119°48'413.2
2018-Jan-20 17:57N 23°08' E 119°45'1113.8
2018-Jan-20 17:11N 23°00' E 119°37'314.4
2018-Jan-20 16:59N 22°58' E 119°36'914.1
2018-Jan-20 16:22N 22°52' E 119°29'713.9
2018-Jan-20 15:51N 22°46' E 119°25'713.2
2018-Jan-20 15:22N 22°41' E 119°20'54013.7
2018-Jan-19 00:00N 15°30' E 113°36'23419.5 040 / 131006.910.8 26.022.0
2018-Jan-18 12:00N 12°54' E 110°36'   020 / 181003.9 5.4 27.522.5
Track history (hours):
 
Tides and Currents Weather Stations Pressure Air Temp Water Temp Dewpoint Dewpoint Depression Visibility Wind Speed Wind Dir Waves Ship Positions

OOCL Busan

Last reported at 2018-Jan-20 21:35 UTC. Time now 2018-Jan-24 01:58 UTC.
Position N 23°52' E 119°59'.

Length 260 m; draft 8.3 m.

Type: Cargo ship. MMSI: 477007100.

Date/timePositionNaut miles runAvg speedWind from/ knotsBaromVisibWave heightAir tempDewpointWater temp
2018-Jan-20 21:35N 23°52' E 119°59'112.3
2018-Jan-20 21:30N 23°51' E 119°58'612.1
2018-Jan-20 20:59N 23°45' E 119°56'612.3
2018-Jan-20 20:30N 23°39' E 119°54'612.4
2018-Jan-20 20:00N 23°33' E 119°54'612.5
2018-Jan-20 19:30N 23°27' E 119°52'612.8
2018-Jan-20 19:00N 23°21' E 119°52'913.1
2018-Jan-20 18:17N 23°12' E 119°48'413.2
2018-Jan-20 17:57N 23°08' E 119°45'1113.8
2018-Jan-20 17:11N 23°00' E 119°37'314.4
2018-Jan-20 16:59N 22°58' E 119°36'914.1
2018-Jan-20 16:22N 22°52' E 119°29'713.9
2018-Jan-20 15:51N 22°46' E 119°25'713.2
2018-Jan-20 15:22N 22°41' E 119°20'54013.7
2018-Jan-19 00:00N 15°30' E 113°36'23419.5 040 / 131006.910.8 26.022.0
2018-Jan-18 12:00N 12°54' E 110°36'   020 / 181003.9 5.4 27.522.5

Dump ship's entire track history